Yorktown, Indiana
Current Conditions -  °F | °C
As of 1:53 PM on Thursday 23 Oct 2014 (Local Time) from KMIE Reporting Station
Clear Clear  
Wind Chill: 55°   Ceiling: Unl
Heat Index: 55°   Visibility: 10mi
Dew Point: 40°   Wind: 0mph
Humidity: 57%   Direction: NA
Pressure: 30.19"   Gusts: NA
Location:  40.17°N, 85.49°W
Report Text: KMIE 231753Z 00000KT 10SM CLR 13/04 A3019 RMK AO2 SLP225 I6001 T01280044 10133 21006 58021
Loading
Personal Weather Stations






























Interactive Weather Map
Tropical Storm Tracking
New forecast layout! Learn more

10-Day Weather Forecast

Advertisements
Track Severe Weather on mobile